sensor_id;sensor_type;location;lat;lon;timestamp;P1;durP1;ratioP1;P2;durP2;ratioP2
50433;SDS011;36361;38.954;-9.002;2024-02-23T08:13:36;13.90;;;2.30;;
50433;SDS011;36361;38.954;-9.002;2024-02-23T08:14:38;10.90;;;1.70;;
50433;SDS011;36361;38.954;-9.002;2024-02-23T08:15:40;14.00;;;2.35;;
50433;SDS011;36361;38.954;-9.002;2024-02-23T08:21:19;14.93;;;2.28;;
50433;SDS011;36361;38.954;-9.002;2024-02-23T08:22:33;11.80;;;2.55;;
50433;SDS011;36361;38.954;-9.002;2024-02-23T08:23:44;11.80;;;2.13;;
50433;SDS011;36361;38.954;-9.002;2024-02-23T08:27:29;18.05;;;3.00;;
50433;SDS011;36361;38.954;-9.002;2024-02-23T08:28:39;11.70;;;2.10;;
50433;SDS011;36361;38.954;-9.002;2024-02-23T08:29:39;16.58;;;2.65;;
50433;SDS011;36361;38.954;-9.002;2024-02-23T08:32:30;20.63;;;2.67;;
50433;SDS011;36361;38.954;-9.002;2024-02-23T08:33:31;18.95;;;3.38;;
50433;SDS011;36361;38.954;-9.002;2024-02-23T08:38:32;11.55;;;2.42;;
50433;SDS011;36361;38.954;-9.002;2024-02-23T08:39:33;14.85;;;3.03;;
50433;SDS011;36361;38.954;-9.002;2024-02-23T08:54:55;11.50;;;1.52;;
50433;SDS011;36361;38.954;-9.002;2024-02-23T08:56:21;10.80;;;1.60;;
50433;SDS011;36361;38.954;-9.002;2024-02-23T09:05:57;7.10;;;1.13;;
50433;SDS011;36361;38.954;-9.002;2024-02-23T09:06:59;8.25;;;1.35;;
50433;SDS011;36361;38.954;-9.002;2024-02-23T09:10:40;5.63;;;1.20;;
50433;SDS011;36361;38.954;-9.002;2024-02-23T09:11:44;8.32;;;1.38;;
50433;SDS011;36361;38.954;-9.002;2024-02-23T09:12:48;9.82;;;1.73;;
50433;SDS011;36361;38.954;-9.002;2024-02-23T09:13:49;11.20;;;2.10;;
50433;SDS011;36361;38.954;-9.002;2024-02-23T09:14:52;8.50;;;1.33;;
50433;SDS011;36361;38.954;-9.002;2024-02-23T09:15:53;7.85;;;1.35;;
50433;SDS011;36361;38.954;-9.002;2024-02-23T09:16:54;7.32;;;1.23;;
50433;SDS011;36361;38.954;-9.002;2024-02-23T09:17:55;5.63;;;1.17;;
50433;SDS011;36361;38.954;-9.002;2024-02-23T09:18:55;8.18;;;1.83;;
50433;SDS011;36361;38.954;-9.002;2024-02-23T09:19:56;7.63;;;1.27;;
50433;SDS011;36361;38.954;-9.002;2024-02-23T09:20:57;7.13;;;1.20;;
50433;SDS011;36361;38.954;-9.002;2024-02-23T09:22:00;13.40;;;1.65;;
50433;SDS011;36361;38.954;-9.002;2024-02-23T09:23:02;10.30;;;1.90;;
50433;SDS011;36361;38.954;-9.002;2024-02-23T09:24:03;12.85;;;1.90;;
50433;SDS011;36361;38.954;-9.002;2024-02-23T09:31:13;15.73;;;2.58;;
50433;SDS011;36361;38.954;-9.002;2024-02-23T09:32:14;16.65;;;2.65;;
50433;SDS011;36361;38.954;-9.002;2024-02-23T09:33:31;8.52;;;1.65;;
50433;SDS011;36361;38.954;-9.002;2024-02-23T09:34:37;11.85;;;2.30;;
50433;SDS011;36361;38.954;-9.002;2024-02-23T09:35:38;8.43;;;1.90;;
50433;SDS011;36361;38.954;-9.002;2024-02-23T09:36:39;16.88;;;2.35;;
50433;SDS011;36361;38.954;-9.002;2024-02-23T09:37:42;13.20;;;2.25;;
50433;SDS011;36361;38.954;-9.002;2024-02-23T09:38:43;23.30;;;2.53;;
50433;SDS011;36361;38.954;-9.002;2024-02-23T09:39:49;11.48;;;2.13;;
50433;SDS011;36361;38.954;-9.002;2024-02-23T09:40:50;14.20;;;1.83;;
50433;SDS011;36361;38.954;-9.002;2024-02-23T09:41:51;7.20;;;1.67;;
50433;SDS011;36361;38.954;-9.002;2024-02-23T09:42:58;15.25;;;2.53;;
50433;SDS011;36361;38.954;-9.002;2024-02-23T09:44:01;8.57;;;1.83;;
50433;SDS011;36361;38.954;-9.002;2024-02-23T09:45:02;8.70;;;1.90;;
50433;SDS011;36361;38.954;-9.002;2024-02-23T09:46:05;10.63;;;1.63;;
50433;SDS011;36361;38.954;-9.002;2024-02-23T09:47:07;8.73;;;1.27;;
50433;SDS011;36361;38.954;-9.002;2024-02-23T09:48:10;9.48;;;1.63;;
50433;SDS011;36361;38.954;-9.002;2024-02-23T09:49:12;8.23;;;1.35;;
50433;SDS011;36361;38.954;-9.002;2024-02-23T09:50:15;9.07;;;1.55;;
50433;SDS011;36361;38.954;-9.002;2024-02-23T09:51:18;6.90;;;1.20;;
50433;SDS011;36361;38.954;-9.002;2024-02-23T09:52:21;7.10;;;1.60;;
50433;SDS011;36361;38.954;-9.002;2024-02-23T09:59:40;11.48;;;2.30;;
50433;SDS011;36361;38.954;-9.002;2024-02-23T10:00:42;11.63;;;2.28;;
50433;SDS011;36361;38.954;-9.002;2024-02-23T10:04:07;8.30;;;1.75;;
50433;SDS011;36361;38.954;-9.002;2024-02-23T10:05:12;14.75;;;2.53;;
50433;SDS011;36361;38.954;-9.002;2024-02-23T10:06:17;12.30;;;2.45;;
50433;SDS011;36361;38.954;-9.002;2024-02-23T10:07:18;9.40;;;1.90;;
50433;SDS011;36361;38.954;-9.002;2024-02-23T10:19:11;7.28;;;1.83;;
50433;SDS011;36361;38.954;-9.002;2024-02-23T10:20:12;11.65;;;1.77;;
50433;SDS011;36361;38.954;-9.002;2024-02-23T10:21:13;6.95;;;1.80;;
50433;SDS011;36361;38.954;-9.002;2024-02-23T10:22:14;7.50;;;1.48;;
50433;SDS011;36361;38.954;-9.002;2024-02-23T10:23:15;8.25;;;1.67;;
50433;SDS011;36361;38.954;-9.002;2024-02-23T10:24:15;9.73;;;1.67;;
50433;SDS011;36361;38.954;-9.002;2024-02-23T10:25:17;7.72;;;1.15;;
50433;SDS011;36361;38.954;-9.002;2024-02-23T10:26:21;5.88;;;1.08;;
50433;SDS011;36361;38.954;-9.002;2024-02-23T10:27:23;9.70;;;1.60;;
50433;SDS011;36361;38.954;-9.002;2024-02-23T10:28:23;10.15;;;1.38;;
50433;SDS011;36361;38.954;-9.002;2024-02-23T10:29:25;7.38;;;2.22;;
50433;SDS011;36361;38.954;-9.002;2024-02-23T10:35:05;9.15;;;1.77;;
50433;SDS011;36361;38.954;-9.002;2024-02-23T10:36:27;7.50;;;1.50;;
50433;SDS011;36361;38.954;-9.002;2024-02-23T10:50:01;6.88;;;1.33;;
50433;SDS011;36361;38.954;-9.002;2024-02-23T10:51:07;8.43;;;1.30;;
50433;SDS011;36361;38.954;-9.002;2024-02-23T10:52:10;7.10;;;1.25;;
50433;SDS011;36361;38.954;-9.002;2024-02-23T10:53:13;8.18;;;1.73;;
50433;SDS011;36361;38.954;-9.002;2024-02-23T11:06:54;10.07;;;1.67;;
50433;SDS011;36361;38.954;-9.002;2024-02-23T11:07:59;10.00;;;1.98;;
50433;SDS011;36361;38.954;-9.002;2024-02-23T11:15:30;11.05;;;1.88;;
50433;SDS011;36361;38.954;-9.002;2024-02-23T11:21:18;8.95;;;2.28;;
50433;SDS011;36361;38.954;-9.002;2024-02-23T11:22:31;12.15;;;1.52;;
50433;SDS011;36361;38.954;-9.002;2024-02-23T11:42:28;13.60;;;1.45;;
50433;SDS011;36361;38.954;-9.002;2024-02-23T11:43:46;7.35;;;1.40;;
50433;SDS011;36361;38.954;-9.002;2024-02-23T11:47:09;10.73;;;1.80;;
50433;SDS011;36361;38.954;-9.002;2024-02-23T11:48:12;9.02;;;1.30;;
50433;SDS011;36361;38.954;-9.002;2024-02-23T11:51:16;7.00;;;1.40;;
50433;SDS011;36361;38.954;-9.002;2024-02-23T11:52:16;6.30;;;0.93;;
50433;SDS011;36361;38.954;-9.002;2024-02-23T11:53:18;5.10;;;1.35;;
50433;SDS011;36361;38.954;-9.002;2024-02-23T11:54:21;6.32;;;1.20;;
50433;SDS011;36361;38.954;-9.002;2024-02-23T11:55:22;6.47;;;1.33;;
50433;SDS011;36361;38.954;-9.002;2024-02-23T11:56:23;7.07;;;1.38;;
50433;SDS011;36361;38.954;-9.002;2024-02-23T11:57:24;9.90;;;1.65;;
50433;SDS011;36361;38.954;-9.002;2024-02-23T11:58:32;8.23;;;1.70;;
50433;SDS011;36361;38.954;-9.002;2024-02-23T12:00:10;11.68;;;1.40;;
50433;SDS011;36361;38.954;-9.002;2024-02-23T12:01:18;5.68;;;1.23;;
50433;SDS011;36361;38.954;-9.002;2024-02-23T12:02:23;4.40;;;1.15;;
50433;SDS011;36361;38.954;-9.002;2024-02-23T12:04:31;12.85;;;1.40;;
50433;SDS011;36361;38.954;-9.002;2024-02-23T12:05:32;4.50;;;0.90;;
50433;SDS011;36361;38.954;-9.002;2024-02-23T12:06:33;2.15;;;0.50;;
50433;SDS011;36361;38.954;-9.002;2024-02-23T12:07:34;6.90;;;0.90;;
50433;SDS011;36361;38.954;-9.002;2024-02-23T12:08:36;2.85;;;0.60;;
50433;SDS011;36361;38.954;-9.002;2024-02-23T12:09:42;4.75;;;0.98;;
50433;SDS011;36361;38.954;-9.002;2024-02-23T12:10:44;3.17;;;0.75;;
50433;SDS011;36361;38.954;-9.002;2024-02-23T12:12:04;5.15;;;0.75;;
50433;SDS011;36361;38.954;-9.002;2024-02-23T12:13:05;5.03;;;1.10;;
50433;SDS011;36361;38.954;-9.002;2024-02-23T12:14:06;6.10;;;0.93;;
50433;SDS011;36361;38.954;-9.002;2024-02-23T12:15:09;5.45;;;1.05;;
50433;SDS011;36361;38.954;-9.002;2024-02-23T12:16:13;6.43;;;1.10;;
50433;SDS011;36361;38.954;-9.002;2024-02-23T12:17:14;7.28;;;0.98;;
50433;SDS011;36361;38.954;-9.002;2024-02-23T12:18:15;5.45;;;0.90;;
50433;SDS011;36361;38.954;-9.002;2024-02-23T12:27:39;6.07;;;1.00;;
50433;SDS011;36361;38.954;-9.002;2024-02-23T12:28:49;8.57;;;1.20;;
50433;SDS011;36361;38.954;-9.002;2024-02-23T12:29:52;4.82;;;0.93;;
50433;SDS011;36361;38.954;-9.002;2024-02-23T12:32:38;8.05;;;1.40;;
50433;SDS011;36361;38.954;-9.002;2024-02-23T12:33:40;9.43;;;1.48;;
50433;SDS011;36361;38.954;-9.002;2024-02-23T12:34:43;4.82;;;1.08;;
50433;SDS011;36361;38.954;-9.002;2024-02-23T12:35:45;7.15;;;1.52;;
50433;SDS011;36361;38.954;-9.002;2024-02-23T12:36:45;16.02;;;2.05;;
50433;SDS011;36361;38.954;-9.002;2024-02-23T12:37:46;10.27;;;1.30;;
50433;SDS011;36361;38.954;-9.002;2024-02-23T12:40:23;8.23;;;1.30;;
50433;SDS011;36361;38.954;-9.002;2024-02-23T12:41:38;9.55;;;1.50;;
50433;SDS011;36361;38.954;-9.002;2024-02-23T12:42:42;7.88;;;1.55;;
50433;SDS011;36361;38.954;-9.002;2024-02-23T12:43:47;8.10;;;1.23;;
50433;SDS011;36361;38.954;-9.002;2024-02-23T12:51:50;6.50;;;1.42;;
50433;SDS011;36361;38.954;-9.002;2024-02-23T12:52:51;9.45;;;1.60;;
50433;SDS011;36361;38.954;-9.002;2024-02-23T12:55:32;8.82;;;1.23;;
50433;SDS011;36361;38.954;-9.002;2024-02-23T12:57:18;8.05;;;1.30;;
50433;SDS011;36361;38.954;-9.002;2024-02-23T12:58:19;7.53;;;1.35;;
50433;SDS011;36361;38.954;-9.002;2024-02-23T12:59:20;9.25;;;1.48;;
50433;SDS011;36361;38.954;-9.002;2024-02-23T13:00:21;6.97;;;1.23;;
50433;SDS011;36361;38.954;-9.002;2024-02-23T13:01:22;5.85;;;1.15;;
50433;SDS011;36361;38.954;-9.002;2024-02-23T13:02:29;9.32;;;1.30;;
50433;SDS011;36361;38.954;-9.002;2024-02-23T13:18:18;6.85;;;1.27;;
50433;SDS011;36361;38.954;-9.002;2024-02-23T13:19:19;6.85;;;1.42;;
50433;SDS011;36361;38.954;-9.002;2024-02-23T13:20:20;5.72;;;1.70;;
50433;SDS011;36361;38.954;-9.002;2024-02-23T13:21:21;7.43;;;1.20;;
50433;SDS011;36361;38.954;-9.002;2024-02-23T13:22:22;6.10;;;1.50;;
50433;SDS011;36361;38.954;-9.002;2024-02-23T13:23:38;4.75;;;1.17;;
50433;SDS011;36361;38.954;-9.002;2024-02-23T13:24:51;10.00;;;1.85;;
50433;SDS011;36361;38.954;-9.002;2024-02-23T13:25:52;8.65;;;1.60;;
50433;SDS011;36361;38.954;-9.002;2024-02-23T13:26:52;6.18;;;1.90;;
50433;SDS011;36361;38.954;-9.002;2024-02-23T13:27:53;9.73;;;1.60;;
50433;SDS011;36361;38.954;-9.002;2024-02-23T13:28:54;9.98;;;2.10;;
50433;SDS011;36361;38.954;-9.002;2024-02-23T13:29:55;8.15;;;1.58;;
50433;SDS011;36361;38.954;-9.002;2024-02-23T13:31:08;6.93;;;2.10;;
50433;SDS011;36361;38.954;-9.002;2024-02-23T13:32:40;13.27;;;2.45;;
50433;SDS011;36361;38.954;-9.002;2024-02-23T13:33:41;10.43;;;2.35;;
50433;SDS011;36361;38.954;-9.002;2024-02-23T13:34:42;7.10;;;1.80;;
50433;SDS011;36361;38.954;-9.002;2024-02-23T13:35:43;5.38;;;0.98;;
50433;SDS011;36361;38.954;-9.002;2024-02-23T13:36:44;11.23;;;1.98;;
50433;SDS011;36361;38.954;-9.002;2024-02-23T13:45:06;11.35;;;2.30;;
50433;SDS011;36361;38.954;-9.002;2024-02-23T13:49:04;17.13;;;2.88;;
50433;SDS011;36361;38.954;-9.002;2024-02-23T13:50:09;7.30;;;1.73;;
50433;SDS011;36361;38.954;-9.002;2024-02-23T13:51:11;10.93;;;2.05;;
50433;SDS011;36361;38.954;-9.002;2024-02-23T13:52:11;6.97;;;1.50;;
50433;SDS011;36361;38.954;-9.002;2024-02-23T13:56:18;7.93;;;1.15;;
50433;SDS011;36361;38.954;-9.002;2024-02-23T13:57:21;4.70;;;0.77;;
50433;SDS011;36361;38.954;-9.002;2024-02-23T13:58:25;6.35;;;0.68;;
50433;SDS011;36361;38.954;-9.002;2024-02-23T14:00:42;2.85;;;0.60;;
50433;SDS011;36361;38.954;-9.002;2024-02-23T14:13:10;5.90;;;1.45;;
50433;SDS011;36361;38.954;-9.002;2024-02-23T14:14:11;6.85;;;1.02;;
50433;SDS011;36361;38.954;-9.002;2024-02-23T14:15:12;7.20;;;1.42;;
50433;SDS011;36361;38.954;-9.002;2024-02-23T14:16:13;6.47;;;1.65;;
50433;SDS011;36361;38.954;-9.002;2024-02-23T14:17:14;4.35;;;1.10;;
50433;SDS011;36361;38.954;-9.002;2024-02-23T14:18:15;7.80;;;1.60;;
50433;SDS011;36361;38.954;-9.002;2024-02-23T14:19:15;8.23;;;1.52;;
50433;SDS011;36361;38.954;-9.002;2024-02-23T14:20:16;9.73;;;1.23;;
50433;SDS011;36361;38.954;-9.002;2024-02-23T14:21:21;6.00;;;1.23;;
50433;SDS011;36361;38.954;-9.002;2024-02-23T14:22:26;7.55;;;1.80;;
50433;SDS011;36361;38.954;-9.002;2024-02-23T14:23:28;5.28;;;1.45;;
50433;SDS011;36361;38.954;-9.002;2024-02-23T14:24:39;5.40;;;1.42;;
50433;SDS011;36361;38.954;-9.002;2024-02-23T14:25:46;6.57;;;1.30;;
50433;SDS011;36361;38.954;-9.002;2024-02-23T14:26:59;5.45;;;1.58;;
50433;SDS011;36361;38.954;-9.002;2024-02-23T14:28:15;7.22;;;1.50;;
50433;SDS011;36361;38.954;-9.002;2024-02-23T14:29:23;6.32;;;1.15;;
50433;SDS011;36361;38.954;-9.002;2024-02-23T14:30:26;7.68;;;1.20;;
50433;SDS011;36361;38.954;-9.002;2024-02-23T14:35:07;10.98;;;1.50;;
50433;SDS011;36361;38.954;-9.002;2024-02-23T14:36:10;9.30;;;1.63;;
50433;SDS011;36361;38.954;-9.002;2024-02-23T14:37:11;9.02;;;1.80;;
50433;SDS011;36361;38.954;-9.002;2024-02-23T14:38:20;9.15;;;2.00;;
50433;SDS011;36361;38.954;-9.002;2024-02-23T14:51:05;8.10;;;1.77;;
50433;SDS011;36361;38.954;-9.002;2024-02-23T14:52:09;10.73;;;2.00;;
50433;SDS011;36361;38.954;-9.002;2024-02-23T15:02:38;10.55;;;2.30;;
50433;SDS011;36361;38.954;-9.002;2024-02-23T15:03:40;14.27;;;2.10;;
50433;SDS011;36361;38.954;-9.002;2024-02-23T15:04:40;12.80;;;2.47;;
50433;SDS011;36361;38.954;-9.002;2024-02-23T15:05:41;13.13;;;2.05;;
50433;SDS011;36361;38.954;-9.002;2024-02-23T15:06:42;7.03;;;1.77;;
50433;SDS011;36361;38.954;-9.002;2024-02-23T15:19:46;10.75;;;2.30;;
50433;SDS011;36361;38.954;-9.002;2024-02-23T15:20:53;17.02;;;2.72;;
50433;SDS011;36361;38.954;-9.002;2024-02-23T15:21:55;15.57;;;2.45;;
50433;SDS011;36361;38.954;-9.002;2024-02-23T15:22:57;16.63;;;2.85;;
50433;SDS011;36361;38.954;-9.002;2024-02-23T15:33:20;12.07;;;5.50;;
50433;SDS011;36361;38.954;-9.002;2024-02-23T15:34:21;7.65;;;2.42;;
50433;SDS011;36361;38.954;-9.002;2024-02-23T15:38:03;10.02;;;5.20;;
50433;SDS011;36361;38.954;-9.002;2024-02-23T15:41:12;4.72;;;1.45;;
50433;SDS011;36361;38.954;-9.002;2024-02-23T15:43:52;4.68;;;1.10;;
50433;SDS011;36361;38.954;-9.002;2024-02-23T15:44:53;6.30;;;2.53;;
50433;SDS011;36361;38.954;-9.002;2024-02-23T15:46:41;6.95;;;3.83;;
50433;SDS011;36361;38.954;-9.002;2024-02-23T15:47:42;11.60;;;4.05;;
50433;SDS011;36361;38.954;-9.002;2024-02-23T15:48:43;17.35;;;6.38;;
50433;SDS011;36361;38.954;-9.002;2024-02-23T15:51:44;11.15;;;2.83;;
50433;SDS011;36361;38.954;-9.002;2024-02-23T15:52:46;10.05;;;2.22;;
50433;SDS011;36361;38.954;-9.002;2024-02-23T15:53:48;12.13;;;1.83;;
50433;SDS011;36361;38.954;-9.002;2024-02-23T15:54:48;6.93;;;1.42;;
50433;SDS011;36361;38.954;-9.002;2024-02-23T15:55:49;7.65;;;2.00;;
50433;SDS011;36361;38.954;-9.002;2024-02-23T15:56:50;10.32;;;1.60;;
50433;SDS011;36361;38.954;-9.002;2024-02-23T15:57:51;6.53;;;1.80;;
50433;SDS011;36361;38.954;-9.002;2024-02-23T15:58:55;7.05;;;1.55;;
50433;SDS011;36361;38.954;-9.002;2024-02-23T15:59:56;7.43;;;1.80;;
50433;SDS011;36361;38.954;-9.002;2024-02-23T16:00:56;8.52;;;2.25;;
50433;SDS011;36361;38.954;-9.002;2024-02-23T16:01:57;7.47;;;1.58;;
50433;SDS011;36361;38.954;-9.002;2024-02-23T16:03:02;9.10;;;1.85;;
50433;SDS011;36361;38.954;-9.002;2024-02-23T16:04:04;8.50;;;2.05;;
50433;SDS011;36361;38.954;-9.002;2024-02-23T16:05:05;4.07;;;1.25;;
50433;SDS011;36361;38.954;-9.002;2024-02-23T16:06:07;3.28;;;1.23;;
50433;SDS011;36361;38.954;-9.002;2024-02-23T16:07:11;7.20;;;2.70;;
50433;SDS011;36361;38.954;-9.002;2024-02-23T16:08:12;5.82;;;2.67;;
50433;SDS011;36361;38.954;-9.002;2024-02-23T16:09:13;5.93;;;2.00;;
50433;SDS011;36361;38.954;-9.002;2024-02-23T16:10:16;4.95;;;2.10;;
50433;SDS011;36361;38.954;-9.002;2024-02-23T16:11:18;6.88;;;1.63;;
50433;SDS011;36361;38.954;-9.002;2024-02-23T16:12:19;6.97;;;1.65;;
50433;SDS011;36361;38.954;-9.002;2024-02-23T16:13:20;6.45;;;1.48;;
50433;SDS011;36361;38.954;-9.002;2024-02-23T16:14:23;8.60;;;2.30;;
50433;SDS011;36361;38.954;-9.002;2024-02-23T16:15:30;6.28;;;1.73;;
50433;SDS011;36361;38.954;-9.002;2024-02-23T16:16:37;6.00;;;1.92;;
50433;SDS011;36361;38.954;-9.002;2024-02-23T16:17:41;5.00;;;1.05;;
50433;SDS011;36361;38.954;-9.002;2024-02-23T16:18:42;6.72;;;1.40;;
50433;SDS011;36361;38.954;-9.002;2024-02-23T16:19:43;8.73;;;1.58;;
50433;SDS011;36361;38.954;-9.002;2024-02-23T16:20:44;6.40;;;1.38;;
50433;SDS011;36361;38.954;-9.002;2024-02-23T16:21:45;8.65;;;1.58;;
50433;SDS011;36361;38.954;-9.002;2024-02-23T16:22:47;4.90;;;0.90;;
50433;SDS011;36361;38.954;-9.002;2024-02-23T16:23:48;11.40;;;1.63;;
50433;SDS011;36361;38.954;-9.002;2024-02-23T16:24:49;10.02;;;1.77;;
50433;SDS011;36361;38.954;-9.002;2024-02-23T16:25:50;7.68;;;1.20;;
50433;SDS011;36361;38.954;-9.002;2024-02-23T16:26:50;10.73;;;1.88;;
50433;SDS011;36361;38.954;-9.002;2024-02-23T16:27:51;7.18;;;1.42;;
50433;SDS011;36361;38.954;-9.002;2024-02-23T16:28:53;10.38;;;2.50;;
50433;SDS011;36361;38.954;-9.002;2024-02-23T16:29:54;9.65;;;1.92;;
50433;SDS011;36361;38.954;-9.002;2024-02-23T16:30:55;7.63;;;1.63;;
50433;SDS011;36361;38.954;-9.002;2024-02-23T16:31:58;7.43;;;1.42;;
50433;SDS011;36361;38.954;-9.002;2024-02-23T16:55:10;10.27;;;2.45;;
50433;SDS011;36361;38.954;-9.002;2024-02-23T16:56:12;12.00;;;4.95;;
50433;SDS011;36361;38.954;-9.002;2024-02-23T16:57:13;12.70;;;3.75;;
50433;SDS011;36361;38.954;-9.002;2024-02-23T16:58:14;9.30;;;1.92;;
50433;SDS011;36361;38.954;-9.002;2024-02-23T16:59:15;8.73;;;2.85;;
50433;SDS011;36361;38.954;-9.002;2024-02-23T17:00:16;10.43;;;2.30;;
50433;SDS011;36361;38.954;-9.002;2024-02-23T17:01:17;7.82;;;1.75;;
50433;SDS011;36361;38.954;-9.002;2024-02-23T17:02:18;7.57;;;1.50;;
50433;SDS011;36361;38.954;-9.002;2024-02-23T17:03:19;7.28;;;1.73;;
50433;SDS011;36361;38.954;-9.002;2024-02-23T17:04:20;7.75;;;1.88;;
50433;SDS011;36361;38.954;-9.002;2024-02-23T17:05:21;5.57;;;0.98;;
50433;SDS011;36361;38.954;-9.002;2024-02-23T17:06:22;13.48;;;2.22;;
50433;SDS011;36361;38.954;-9.002;2024-02-23T17:07:22;8.50;;;1.95;;
50433;SDS011;36361;38.954;-9.002;2024-02-23T17:08:23;8.55;;;1.65;;
50433;SDS011;36361;38.954;-9.002;2024-02-23T17:09:24;9.45;;;1.45;;
50433;SDS011;36361;38.954;-9.002;2024-02-23T17:10:34;10.15;;;1.95;;
50433;SDS011;36361;38.954;-9.002;2024-02-23T17:13:08;9.80;;;2.67;;
50433;SDS011;36361;38.954;-9.002;2024-02-23T17:14:08;12.88;;;2.90;;
50433;SDS011;36361;38.954;-9.002;2024-02-23T17:15:09;10.82;;;2.35;;
50433;SDS011;36361;38.954;-9.002;2024-02-23T17:16:10;12.15;;;2.33;;
50433;SDS011;36361;38.954;-9.002;2024-02-23T17:17:12;19.40;;;2.78;;
50433;SDS011;36361;38.954;-9.002;2024-02-23T17:18:13;11.30;;;2.33;;
50433;SDS011;36361;38.954;-9.002;2024-02-23T17:19:14;14.95;;;2.53;;
50433;SDS011;36361;38.954;-9.002;2024-02-23T17:20:15;15.45;;;2.50;;
50433;SDS011;36361;38.954;-9.002;2024-02-23T17:21:16;10.52;;;2.30;;
50433;SDS011;36361;38.954;-9.002;2024-02-23T17:22:17;17.63;;;2.78;;
50433;SDS011;36361;38.954;-9.002;2024-02-23T17:23:18;11.25;;;2.22;;
50433;SDS011;36361;38.954;-9.002;2024-02-23T17:24:19;15.18;;;2.83;;
50433;SDS011;36361;38.954;-9.002;2024-02-23T17:25:20;16.20;;;2.97;;
50433;SDS011;36361;38.954;-9.002;2024-02-23T17:26:21;19.52;;;3.17;;
50433;SDS011;36361;38.954;-9.002;2024-02-23T17:27:27;14.63;;;2.70;;
50433;SDS011;36361;38.954;-9.002;2024-02-23T17:28:36;12.98;;;2.58;;
50433;SDS011;36361;38.954;-9.002;2024-02-23T17:29:38;19.13;;;2.72;;
50433;SDS011;36361;38.954;-9.002;2024-02-23T17:30:39;16.65;;;3.10;;
50433;SDS011;36361;38.954;-9.002;2024-02-23T17:31:41;10.98;;;2.60;;
50433;SDS011;36361;38.954;-9.002;2024-02-23T17:32:42;13.57;;;2.60;;
50433;SDS011;36361;38.954;-9.002;2024-02-23T17:33:43;15.90;;;3.67;;
50433;SDS011;36361;38.954;-9.002;2024-02-23T17:34:44;14.77;;;3.78;;
50433;SDS011;36361;38.954;-9.002;2024-02-23T17:35:45;16.70;;;3.50;;
50433;SDS011;36361;38.954;-9.002;2024-02-23T17:36:47;13.68;;;3.67;;
50433;SDS011;36361;38.954;-9.002;2024-02-23T17:37:48;18.10;;;3.33;;
50433;SDS011;36361;38.954;-9.002;2024-02-23T17:38:49;14.52;;;2.95;;
50433;SDS011;36361;38.954;-9.002;2024-02-23T17:39:50;13.23;;;3.30;;
50433;SDS011;36361;38.954;-9.002;2024-02-23T17:40:52;18.55;;;3.25;;
50433;SDS011;36361;38.954;-9.002;2024-02-23T17:41:53;18.48;;;4.68;;
50433;SDS011;36361;38.954;-9.002;2024-02-23T17:42:54;20.05;;;7.18;;
50433;SDS011;36361;38.954;-9.002;2024-02-23T17:43:55;20.75;;;6.97;;
50433;SDS011;36361;38.954;-9.002;2024-02-23T17:44:57;15.40;;;5.15;;
50433;SDS011;36361;38.954;-9.002;2024-02-23T17:45:58;17.67;;;4.30;;
50433;SDS011;36361;38.954;-9.002;2024-02-23T17:47:00;12.63;;;3.53;;
50433;SDS011;36361;38.954;-9.002;2024-02-23T17:48:01;11.32;;;2.33;;
50433;SDS011;36361;38.954;-9.002;2024-02-23T17:49:02;13.88;;;3.00;;
50433;SDS011;36361;38.954;-9.002;2024-02-23T17:50:04;16.52;;;3.08;;
50433;SDS011;36361;38.954;-9.002;2024-02-23T17:51:05;14.70;;;3.13;;
50433;SDS011;36361;38.954;-9.002;2024-02-23T17:52:06;13.13;;;2.60;;
50433;SDS011;36361;38.954;-9.002;2024-02-23T17:53:06;14.88;;;3.30;;
50433;SDS011;36361;38.954;-9.002;2024-02-23T17:54:07;9.43;;;2.58;;
50433;SDS011;36361;38.954;-9.002;2024-02-23T17:55:08;8.82;;;2.58;;
50433;SDS011;36361;38.954;-9.002;2024-02-23T17:56:09;12.80;;;2.85;;
50433;SDS011;36361;38.954;-9.002;2024-02-23T17:57:10;13.75;;;2.38;;
50433;SDS011;36361;38.954;-9.002;2024-02-23T17:58:11;13.90;;;3.03;;
50433;SDS011;36361;38.954;-9.002;2024-02-23T17:59:12;13.60;;;2.90;;
50433;SDS011;36361;38.954;-9.002;2024-02-23T18:00:12;8.63;;;2.10;;
50433;SDS011;36361;38.954;-9.002;2024-02-23T18:01:15;11.10;;;2.38;;
50433;SDS011;36361;38.954;-9.002;2024-02-23T18:02:16;13.30;;;2.90;;
50433;SDS011;36361;38.954;-9.002;2024-02-23T18:03:17;7.88;;;1.27;;
50433;SDS011;36361;38.954;-9.002;2024-02-23T18:04:21;9.40;;;2.08;;
50433;SDS011;36361;38.954;-9.002;2024-02-23T18:05:23;6.18;;;1.33;;
50433;SDS011;36361;38.954;-9.002;2024-02-23T18:06:24;8.00;;;1.95;;
50433;SDS011;36361;38.954;-9.002;2024-02-23T18:07:25;14.02;;;3.13;;
50433;SDS011;36361;38.954;-9.002;2024-02-23T18:08:26;17.35;;;2.63;;
50433;SDS011;36361;38.954;-9.002;2024-02-23T18:09:27;13.18;;;2.78;;
50433;SDS011;36361;38.954;-9.002;2024-02-23T18:10:28;19.20;;;3.28;;
50433;SDS011;36361;38.954;-9.002;2024-02-23T18:11:29;13.98;;;2.90;;
50433;SDS011;36361;38.954;-9.002;2024-02-23T18:12:29;9.23;;;1.98;;
50433;SDS011;36361;38.954;-9.002;2024-02-23T18:16:14;12.43;;;3.00;;
50433;SDS011;36361;38.954;-9.002;2024-02-23T18:17:18;8.15;;;2.45;;
50433;SDS011;36361;38.954;-9.002;2024-02-23T18:18:19;12.07;;;3.25;;
50433;SDS011;36361;38.954;-9.002;2024-02-23T18:19:20;22.65;;;4.72;;
50433;SDS011;36361;38.954;-9.002;2024-02-23T18:20:20;14.07;;;3.92;;
50433;SDS011;36361;38.954;-9.002;2024-02-23T18:21:23;15.02;;;3.65;;
50433;SDS011;36361;38.954;-9.002;2024-02-23T18:22:23;17.85;;;4.57;;
50433;SDS011;36361;38.954;-9.002;2024-02-23T18:23:24;12.88;;;4.15;;
50433;SDS011;36361;38.954;-9.002;2024-02-23T18:24:25;13.98;;;4.40;;
50433;SDS011;36361;38.954;-9.002;2024-02-23T18:25:26;15.18;;;4.15;;
50433;SDS011;36361;38.954;-9.002;2024-02-23T18:26:27;13.57;;;3.88;;
50433;SDS011;36361;38.954;-9.002;2024-02-23T18:27:28;16.92;;;4.13;;
50433;SDS011;36361;38.954;-9.002;2024-02-23T18:28:29;16.33;;;4.10;;
50433;SDS011;36361;38.954;-9.002;2024-02-23T18:29:32;17.80;;;4.18;;
50433;SDS011;36361;38.954;-9.002;2024-02-23T18:30:36;11.85;;;3.08;;
50433;SDS011;36361;38.954;-9.002;2024-02-23T18:31:37;18.55;;;4.03;;
50433;SDS011;36361;38.954;-9.002;2024-02-23T18:32:37;14.73;;;3.70;;
50433;SDS011;36361;38.954;-9.002;2024-02-23T18:33:38;16.45;;;3.47;;
50433;SDS011;36361;38.954;-9.002;2024-02-23T18:34:39;18.60;;;4.25;;
50433;SDS011;36361;38.954;-9.002;2024-02-23T18:35:40;17.20;;;3.60;;
50433;SDS011;36361;38.954;-9.002;2024-02-23T18:36:40;22.00;;;10.07;;
50433;SDS011;36361;38.954;-9.002;2024-02-23T18:37:41;28.67;;;11.48;;
50433;SDS011;36361;38.954;-9.002;2024-02-23T18:38:43;29.35;;;11.07;;
50433;SDS011;36361;38.954;-9.002;2024-02-23T18:39:44;24.67;;;11.80;;
50433;SDS011;36361;38.954;-9.002;2024-02-23T18:40:44;27.08;;;13.73;;
50433;SDS011;36361;38.954;-9.002;2024-02-23T18:41:45;25.95;;;12.88;;
50433;SDS011;36361;38.954;-9.002;2024-02-23T18:42:46;29.58;;;18.83;;
50433;SDS011;36361;38.954;-9.002;2024-02-23T18:43:47;24.33;;;12.57;;
50433;SDS011;36361;38.954;-9.002;2024-02-23T18:44:48;17.35;;;7.65;;
50433;SDS011;36361;38.954;-9.002;2024-02-23T18:45:49;22.23;;;6.22;;
50433;SDS011;36361;38.954;-9.002;2024-02-23T18:46:50;18.13;;;4.80;;
50433;SDS011;36361;38.954;-9.002;2024-02-23T18:47:51;10.45;;;2.97;;
50433;SDS011;36361;38.954;-9.002;2024-02-23T18:48:52;17.25;;;4.60;;
50433;SDS011;36361;38.954;-9.002;2024-02-23T18:49:55;20.58;;;4.68;;
50433;SDS011;36361;38.954;-9.002;2024-02-23T18:50:56;14.13;;;3.95;;
50433;SDS011;36361;38.954;-9.002;2024-02-23T18:51:57;20.25;;;4.50;;
50433;SDS011;36361;38.954;-9.002;2024-02-23T18:52:59;15.95;;;3.97;;
50433;SDS011;36361;38.954;-9.002;2024-02-23T18:54:00;18.10;;;5.15;;
50433;SDS011;36361;38.954;-9.002;2024-02-23T18:55:00;17.48;;;4.05;;
50433;SDS011;36361;38.954;-9.002;2024-02-23T18:56:01;16.40;;;3.97;;